Time;durP1;ratioP1;P1;durP2;ratioP2;P2;SDS_P1;SDS_P2;PMS_P1;PMS_P2;Temp;Humidity;BMP_temperature;BMP_pressure;BME280_temperature;BME280_humidity;BME280_pressure;Samples;Min_cycle;Max_cycle;Signal;HPM_P1;HPM_P2
2022/02/25 00:00:58;;;;;;;3.97;0.93;;;;;;;;;;4940154;28;20046;-71
2022/02/25 00:03:25;;;;;;;1.75;0.80;;;;;;;;;;4972923;28;20055;-71
2022/02/25 00:05:51;;;;;;;2.22;0.80;;;;;;;;;;4955886;28;20078;-72
2022/02/25 00:08:18;;;;;;;2.00;0.70;;;;;;;;;;4973060;28;20046;-71
2022/02/25 00:10:45;;;;;;;2.15;0.80;;;;;;;;;;4958542;28;20081;-71
2022/02/25 00:13:12;;;;;;;0.50;0.50;;;;;;;;;;4953528;29;20048;-72
2022/02/25 00:15:38;;;;;;;3.72;1.00;;;;;;;;;;4953761;29;20051;-71
2022/02/25 00:18:05;;;;;;;1.95;0.60;;;;;;;;;;4954244;29;20047;-71
2022/02/25 00:20:32;;;;;;;2.75;1.00;;;;;;;;;;4952110;29;20051;-71
2022/02/25 00:22:58;;;;;;;1.00;0.90;;;;;;;;;;4953342;28;20487;-71
2022/02/25 00:25:25;;;;;;;2.08;0.60;;;;;;;;;;4957468;29;20098;-70
2022/02/25 00:27:51;;;;;;;2.70;1.02;;;;;;;;;;4940355;29;20094;-70
2022/02/25 00:30:18;;;;;;;4.07;1.00;;;;;;;;;;4940126;29;20055;-70
2022/02/25 00:32:47;;;;;;;1.33;1.05;;;;;;;;;;4940295;29;20047;-71
2022/02/25 00:35:14;;;;;;;1.30;0.80;;;;;;;;;;4957240;29;20059;-71
2022/02/25 00:37:40;;;;;;;2.08;0.73;;;;;;;;;;4940527;29;20106;-72
2022/02/25 00:40:09;;;;;;;2.45;0.80;;;;;;;;;;4966354;28;20046;-71
2022/02/25 00:42:36;;;;;;;1.73;0.90;;;;;;;;;;4986590;28;20074;-71
2022/02/25 00:45:03;;;;;;;3.10;0.93;;;;;;;;;;4966587;28;20066;-71
2022/02/25 00:47:29;;;;;;;2.17;0.90;;;;;;;;;;4967442;28;20490;-71
2022/02/25 00:49:56;;;;;;;2.45;0.88;;;;;;;;;;4987210;28;20051;-72
2022/02/25 00:52:23;;;;;;;1.52;1.00;;;;;;;;;;4954541;29;20078;-71
2022/02/25 00:54:52;;;;;;;1.40;1.13;;;;;;;;;;4968977;29;20086;-71
2022/02/25 00:57:19;;;;;;;4.93;1.30;;;;;;;;;;4949943;29;20055;-71
2022/02/25 00:59:46;;;;;;;3.65;1.35;;;;;;;;;;4968228;29;20083;-70
2022/02/25 01:02:12;;;;;;;5.88;1.55;;;;;;;;;;4967199;29;20417;-70
2022/02/25 01:04:39;;;;;;;3.03;1.27;;;;;;;;;;4950027;28;20082;-70
2022/02/25 01:07:06;;;;;;;3.75;1.13;;;;;;;;;;4976009;28;20105;-70
2022/02/25 01:09:32;;;;;;;1.73;1.10;;;;;;;;;;4975748;28;20054;-71
2022/02/25 01:11:59;;;;;;;1.67;1.10;;;;;;;;;;4958497;28;20311;-70
2022/02/25 01:14:25;;;;;;;6.53;1.70;;;;;;;;;;4975792;28;20051;-71
2022/02/25 01:16:52;;;;;;;4.55;1.73;;;;;;;;;;4958723;28;20113;-71
2022/02/25 01:19:19;;;;;;;5.38;1.63;;;;;;;;;;4959210;28;20109;-71
2022/02/25 01:21:46;;;;;;;3.30;1.40;;;;;;;;;;4959445;28;20182;-72
2022/02/25 01:24:13;;;;;;;2.00;1.20;;;;;;;;;;4943438;28;20585;-71
2022/02/25 01:26:39;;;;;;;1.65;1.40;;;;;;;;;;4927784;28;20073;-72
2022/02/25 01:29:06;;;;;;;2.45;1.20;;;;;;;;;;4959311;28;20105;-71
2022/02/25 01:31:33;;;;;;;4.32;1.33;;;;;;;;;;4959009;28;20046;-71
2022/02/25 01:33:59;;;;;;;3.28;0.93;;;;;;;;;;4975592;28;20109;-70
2022/02/25 01:36:26;;;;;;;2.70;1.00;;;;;;;;;;4975458;28;20051;-70
2022/02/25 01:38:52;;;;;;;6.47;1.15;;;;;;;;;;4975380;28;20047;-71
2022/02/25 01:41:19;;;;;;;2.28;1.40;;;;;;;;;;4943797;29;20106;-71
2022/02/25 01:43:46;;;;;;;3.30;1.05;;;;;;;;;;4938798;29;20055;-71
2022/02/25 01:46:13;;;;;;;3.63;1.73;;;;;;;;;;4938872;29;20062;-71
2022/02/25 01:48:39;;;;;;;5.38;1.20;;;;;;;;;;4939110;29;20541;-71
2022/02/25 01:51:06;;;;;;;5.47;1.02;;;;;;;;;;4956400;29;20110;-72
2022/02/25 01:53:33;;;;;;;0.90;0.80;;;;;;;;;;4938831;29;20098;-70
2022/02/25 01:55:59;;;;;;;5.95;1.42;;;;;;;;;;4938890;29;20055;-71
2022/02/25 01:58:26;;;;;;;3.38;0.90;;;;;;;;;;4938742;29;20051;-70
2022/02/25 02:00:52;;;;;;;5.00;1.13;;;;;;;;;;4938643;29;20458;-71
2022/02/25 02:03:20;;;;;;;2.08;1.05;;;;;;;;;;4954692;29;20047;-71
2022/02/25 02:05:49;;;;;;;5.93;2.00;;;;;;;;;;4957692;28;20046;-71
2022/02/25 02:08:16;;;;;;;4.15;1.48;;;;;;;;;;4941885;28;20129;-71
2022/02/25 02:10:42;;;;;;;1.60;1.05;;;;;;;;;;4941626;28;20047;-71
2022/02/25 02:13:11;;;;;;;3.92;1.08;;;;;;;;;;4957711;28;20046;-71
2022/02/25 02:15:38;;;;;;;4.07;1.00;;;;;;;;;;4956963;28;20058;-71
2022/02/25 02:18:04;;;;;;;3.78;1.35;;;;;;;;;;4954402;29;20325;-70
2022/02/25 02:20:31;;;;;;;3.78;0.80;;;;;;;;;;4955166;29;20055;-71
2022/02/25 02:22:58;;;;;;;2.67;0.68;;;;;;;;;;4938046;29;20106;-70
2022/02/25 02:25:24;;;;;;;1.95;0.90;;;;;;;;;;4955205;29;20051;-70
2022/02/25 02:30:36;;;;;;;3.97;1.25;;;;;;;;;;4955539;28;20051;-71
2022/02/25 02:33:02;;;;;;;3.08;1.00;;;;;;;;;;4954923;29;20047;-71
2022/02/25 02:35:29;;;;;;;4.88;0.70;;;;;;;;;;4954020;29;20296;-70
2022/02/25 02:37:58;;;;;;;3.45;1.40;;;;;;;;;;4923676;28;20067;-70
2022/02/25 02:40:25;;;;;;;3.45;0.82;;;;;;;;;;4974297;28;20051;-70
2022/02/25 02:42:52;;;;;;;1.60;0.73;;;;;;;;;;4957000;28;20050;-71
2022/02/25 02:45:18;;;;;;;1.52;0.60;;;;;;;;;;4957211;28;20051;-70
2022/02/25 02:47:45;;;;;;;7.22;1.05;;;;;;;;;;4940701;28;20054;-70
2022/02/25 02:50:12;;;;;;;2.78;0.88;;;;;;;;;;4956719;28;20106;-71
2022/02/25 02:52:39;;;;;;;4.25;0.77;;;;;;;;;;4940643;28;20572;-70
2022/02/25 02:55:06;;;;;;;3.20;1.80;;;;;;;;;;4941229;28;20179;-70
2022/02/25 02:57:33;;;;;;;2.45;0.50;;;;;;;;;;4941284;28;20105;-70
2022/02/25 02:59:59;;;;;;;2.08;0.80;;;;;;;;;;4956945;28;20110;-70
2022/02/25 03:02:26;;;;;;;5.13;0.88;;;;;;;;;;4956698;28;20508;-71
2022/02/25 03:04:53;;;;;;;5.55;0.80;;;;;;;;;;4940864;28;20054;-70
2022/02/25 03:07:19;;;;;;;7.63;1.13;;;;;;;;;;4956740;28;20054;-70
2022/02/25 03:09:46;;;;;;;2.67;0.73;;;;;;;;;;4973382;28;20470;-71
2022/02/25 03:12:13;;;;;;;4.10;0.77;;;;;;;;;;4973493;28;20094;-70
2022/02/25 03:14:40;;;;;;;4.88;0.90;;;;;;;;;;4956676;28;20047;-70
2022/02/25 03:17:07;;;;;;;9.60;1.85;;;;;;;;;;4973747;28;20050;-70
2022/02/25 03:19:35;;;;;;;3.60;1.02;;;;;;;;;;4956443;28;20061;-71
2022/02/25 03:22:02;;;;;;;6.90;1.13;;;;;;;;;;4956534;28;20047;-70
2022/02/25 03:24:29;;;;;;;4.68;1.20;;;;;;;;;;4973684;28;20050;-71
2022/02/25 03:26:55;;;;;;;9.77;2.80;;;;;;;;;;4973659;28;20051;-71
2022/02/25 03:29:22;;;;;;;12.38;1.63;;;;;;;;;;4972921;28;20105;-70
2022/02/25 03:31:49;;;;;;;5.00;1.00;;;;;;;;;;4973081;28;20116;-71
2022/02/25 03:34:15;;;;;;;4.05;0.95;;;;;;;;;;4940633;28;20051;-70
2022/02/25 03:36:42;;;;;;;5.15;1.20;;;;;;;;;;4956201;28;20050;-70
2022/02/25 03:39:09;;;;;;;8.32;1.35;;;;;;;;;;4956365;28;20109;-70
2022/02/25 03:41:35;;;;;;;6.55;0.93;;;;;;;;;;4962997;28;20138;-70
2022/02/25 03:44:02;;;;;;;3.20;0.90;;;;;;;;;;4953928;29;20099;-71
2022/02/25 03:46:29;;;;;;;5.50;1.30;;;;;;;;;;4952786;29;20051;-71
2022/02/25 03:48:56;;;;;;;5.93;0.95;;;;;;;;;;4956871;28;20074;-70
2022/02/25 03:51:23;;;;;;;5.90;1.30;;;;;;;;;;4973365;28;20199;-71
2022/02/25 03:53:50;;;;;;;9.82;1.55;;;;;;;;;;4994319;23;20047;-67
2022/02/25 03:56:16;;;;;;;4.32;0.80;;;;;;;;;;4998640;28;20066;-67
2022/02/25 03:58:43;;;;;;;5.43;1.50;;;;;;;;;;4997527;28;20074;-67
2022/02/25 04:01:10;;;;;;;5.45;1.02;;;;;;;;;;4998352;28;20066;-67
2022/02/25 04:03:37;;;;;;;7.43;1.80;;;;;;;;;;4995945;28;20051;-70
2022/02/25 04:06:03;;;;;;;1.85;0.57;;;;;;;;;;4997469;28;20051;-70
2022/02/25 04:08:31;;;;;;;8.13;0.90;;;;;;;;;;4998355;28;20034;-70
2022/02/25 04:10:57;;;;;;;5.13;1.02;;;;;;;;;;4997652;28;20050;-70
2022/02/25 04:13:25;;;;;;;5.65;1.02;;;;;;;;;;4997371;28;20055;-69
2022/02/25 04:15:51;;;;;;;4.38;1.20;;;;;;;;;;4997828;28;20034;-70
2022/02/25 04:18:18;;;;;;;8.45;0.90;;;;;;;;;;4998483;28;20066;-70
2022/02/25 04:20:45;;;;;;;2.92;0.85;;;;;;;;;;4994909;28;20030;-70
2022/02/25 04:23:12;;;;;;;7.88;1.17;;;;;;;;;;4997961;28;20054;-70
2022/02/25 04:25:39;;;;;;;3.60;0.73;;;;;;;;;;4997961;28;20058;-70
2022/02/25 04:28:05;;;;;;;5.13;1.15;;;;;;;;;;4997166;28;20082;-71
2022/02/25 04:30:32;;;;;;;5.22;0.93;;;;;;;;;;4996704;28;20102;-70
2022/02/25 04:32:58;;;;;;;5.90;0.75;;;;;;;;;;4996620;28;20038;-70
2022/02/25 04:35:25;;;;;;;6.50;0.98;;;;;;;;;;4993737;28;20050;-71
2022/02/25 04:37:52;;;;;;;5.95;1.73;;;;;;;;;;5012045;28;20078;-71
2022/02/25 04:40:19;;;;;;;4.57;1.48;;;;;;;;;;4986787;28;20047;-70
2022/02/25 04:42:46;;;;;;;5.10;1.73;;;;;;;;;;4977998;28;20072;-71
2022/02/25 04:45:13;;;;;;;4.13;2.22;;;;;;;;;;4977963;28;20086;-70
2022/02/25 04:47:39;;;;;;;8.68;1.13;;;;;;;;;;4978265;28;20075;-70
2022/02/25 04:50:10;;;;;;;4.13;0.80;;;;;;;;;;4977378;28;20061;-70
2022/02/25 04:52:39;;;;;;;5.30;0.98;;;;;;;;;;4956769;28;20051;-70
2022/02/25 04:55:06;;;;;;;3.60;1.08;;;;;;;;;;4966270;28;20063;-70
2022/02/25 04:57:32;;;;;;;2.38;1.20;;;;;;;;;;4974741;29;20430;-70
2022/02/25 04:59:59;;;;;;;4.65;0.60;;;;;;;;;;4966723;28;20572;-70
2022/02/25 05:02:25;;;;;;;4.25;0.85;;;;;;;;;;4993840;28;20121;-70
2022/02/25 05:04:52;;;;;;;3.33;0.85;;;;;;;;;;4996125;28;20026;-70
2022/02/25 05:07:18;;;;;;;4.22;1.25;;;;;;;;;;4985798;28;20266;-70
2022/02/25 05:09:45;;;;;;;5.22;2.28;;;;;;;;;;4978398;28;20055;-70
2022/02/25 05:12:12;;;;;;;6.57;1.10;;;;;;;;;;4981008;28;20046;-70
2022/02/25 05:20:24;;;;;;;4.32;0.90;;;;;;;;;;4975783;28;20342;-71
2022/02/25 05:22:53;;;;;;;3.50;0.98;;;;;;;;;;4972705;28;20046;-71
2022/02/25 05:25:22;;;;;;;2.92;0.90;;;;;;;;;;4972579;28;20455;-70
2022/02/25 05:27:50;;;;;;;10.50;1.25;;;;;;;;;;4967758;28;20055;-70
2022/02/25 05:30:16;;;;;;;2.55;1.17;;;;;;;;;;4968265;28;20650;-71
2022/02/25 05:32:44;;;;;;;7.45;1.10;;;;;;;;;;4970335;28;20039;-71
2022/02/25 05:35:11;;;;;;;5.85;1.00;;;;;;;;;;4965015;28;20078;-71
2022/02/25 05:37:39;;;;;;;3.80;0.70;;;;;;;;;;4964733;28;20516;-70
2022/02/25 05:40:07;;;;;;;3.97;1.20;;;;;;;;;;4964158;28;20055;-72
2022/02/25 05:42:34;;;;;;;2.97;0.88;;;;;;;;;;4956351;28;20095;-70
2022/02/25 05:45:01;;;;;;;5.32;1.00;;;;;;;;;;4956244;28;20055;-70
2022/02/25 05:47:28;;;;;;;3.88;1.30;;;;;;;;;;4956499;28;20106;-70
2022/02/25 05:49:55;;;;;;;5.45;1.65;;;;;;;;;;4956635;28;20469;-70
2022/02/25 05:52:22;;;;;;;3.78;0.80;;;;;;;;;;4956455;28;20047;-70
2022/02/25 05:54:50;;;;;;;9.95;1.40;;;;;;;;;;4956880;28;20118;-70
2022/02/25 05:57:16;;;;;;;3.75;1.15;;;;;;;;;;4956947;28;20051;-70
2022/02/25 05:59:43;;;;;;;6.03;1.08;;;;;;;;;;4956482;28;20059;-71
2022/02/25 06:02:11;;;;;;;3.85;1.20;;;;;;;;;;4956157;28;20399;-71
2022/02/25 06:04:38;;;;;;;3.75;1.00;;;;;;;;;;4956562;28;20085;-71
2022/02/25 06:07:05;;;;;;;6.50;1.20;;;;;;;;;;4966923;28;20126;-71
2022/02/25 06:09:32;;;;;;;6.20;1.55;;;;;;;;;;4975191;28;20051;-69
2022/02/25 06:11:59;;;;;;;6.55;1.60;;;;;;;;;;4974629;28;20506;-68
2022/02/25 06:14:26;;;;;;;3.63;1.42;;;;;;;;;;4974963;28;20046;-70
2022/02/25 06:16:52;;;;;;;6.53;1.63;;;;;;;;;;4968118;28;20331;-69
2022/02/25 06:19:19;;;;;;;6.25;1.73;;;;;;;;;;4955716;28;20102;-69
2022/02/25 06:21:46;;;;;;;5.18;1.20;;;;;;;;;;4955036;28;20055;-69
2022/02/25 06:24:12;;;;;;;5.38;1.38;;;;;;;;;;4955985;28;20180;-70
2022/02/25 06:26:39;;;;;;;4.50;1.20;;;;;;;;;;4955741;28;20610;-68
2022/02/25 06:29:05;;;;;;;10.07;2.53;;;;;;;;;;4955554;28;20110;-69
2022/02/25 06:31:32;;;;;;;8.20;1.48;;;;;;;;;;4955577;28;20106;-70
2022/02/25 06:33:59;;;;;;;5.55;1.65;;;;;;;;;;4955470;28;20525;-69
2022/02/25 06:36:26;;;;;;;6.53;1.90;;;;;;;;;;4955934;28;20102;-69
2022/02/25 06:38:53;;;;;;;6.32;1.98;;;;;;;;;;4955618;28;20601;-69
2022/02/25 06:41:25;;;;;;;10.10;2.45;;;;;;;;;;4955179;28;20063;-69
2022/02/25 06:43:52;;;;;;;11.48;2.55;;;;;;;;;;4954445;29;20102;-69
2022/02/25 06:46:19;;;;;;;8.40;2.05;;;;;;;;;;4955408;28;20106;-69
2022/02/25 06:48:46;;;;;;;7.95;2.17;;;;;;;;;;4955654;28;20449;-69
2022/02/25 06:51:12;;;;;;;6.47;2.10;;;;;;;;;;4971796;28;20539;-68
2022/02/25 06:53:39;;;;;;;9.55;2.08;;;;;;;;;;4974073;28;20498;-69
2022/02/25 06:56:06;;;;;;;7.68;2.38;;;;;;;;;;4974431;28;20059;-68
2022/02/25 06:58:34;;;;;;;11.05;2.88;;;;;;;;;;4974559;28;20055;-69
2022/02/25 07:01:02;;;;;;;14.07;3.85;;;;;;;;;;4971879;28;20058;-69
2022/02/25 07:03:29;;;;;;;7.38;2.60;;;;;;;;;;4974201;28;20050;-69
2022/02/25 07:05:56;;;;;;;9.35;2.38;;;;;;;;;;4974534;28;20109;-69
2022/02/25 07:08:23;;;;;;;4.40;1.98;;;;;;;;;;4972448;28;20058;-69
2022/02/25 07:10:49;;;;;;;6.35;2.40;;;;;;;;;;4960658;28;20051;-69
2022/02/25 07:13:17;;;;;;;7.57;2.58;;;;;;;;;;4952628;28;20051;-68
2022/02/25 07:15:43;;;;;;;6.63;2.45;;;;;;;;;;4953294;28;20051;-68
2022/02/25 07:18:10;;;;;;;12.95;2.80;;;;;;;;;;4952885;28;20059;-66
2022/02/25 07:20:37;;;;;;;9.60;2.08;;;;;;;;;;4962578;28;20113;-68
2022/02/25 07:23:03;;;;;;;6.63;1.65;;;;;;;;;;4971919;28;20401;-69
2022/02/25 07:25:31;;;;;;;5.60;1.30;;;;;;;;;;4971978;28;20059;-69
2022/02/25 07:27:57;;;;;;;8.07;1.40;;;;;;;;;;4971527;28;20047;-69
2022/02/25 07:30:26;;;;;;;9.55;1.90;;;;;;;;;;4963872;28;20059;-69
2022/02/25 07:32:53;;;;;;;7.53;1.55;;;;;;;;;;4952168;28;20058;-68
2022/02/25 07:35:20;;;;;;;5.80;1.40;;;;;;;;;;4952167;28;20066;-69
2022/02/25 07:37:47;;;;;;;5.47;1.52;;;;;;;;;;4952359;28;20102;-69
2022/02/25 07:40:14;;;;;;;8.60;2.17;;;;;;;;;;4952075;28;20470;-68
2022/02/25 07:42:41;;;;;;;8.05;2.28;;;;;;;;;;4952446;28;20544;-69
2022/02/25 07:45:09;;;;;;;8.55;1.70;;;;;;;;;;4952944;28;20569;-68
2022/02/25 07:47:37;;;;;;;5.53;1.30;;;;;;;;;;4951991;28;20047;-69
2022/02/25 07:50:09;;;;;;;8.32;1.35;;;;;;;;;;4956844;28;20102;-68
2022/02/25 07:52:36;;;;;;;6.07;1.70;;;;;;;;;;4972107;28;20469;-68
2022/02/25 07:55:03;;;;;;;5.55;1.40;;;;;;;;;;4971153;28;20051;-68
2022/02/25 07:57:30;;;;;;;8.82;1.85;;;;;;;;;;4971768;28;20062;-68
2022/02/25 08:00:17;;;;;;;7.05;1.42;;;;;;;;;;4971024;28;20141;-68
2022/02/25 08:02:44;;;;;;;11.32;1.52;;;;;;;;;;4972193;28;20063;-68
2022/02/25 08:05:11;;;;;;;8.02;1.20;;;;;;;;;;4957264;28;20047;-66
2022/02/25 08:07:38;;;;;;;6.55;1.30;;;;;;;;;;4970382;28;20096;-68
2022/02/25 08:10:05;;;;;;;5.93;1.27;;;;;;;;;;4958321;28;20050;-67
2022/02/25 08:12:39;;;;;;;6.35;1.40;;;;;;;;;;4958312;28;20426;-68
2022/02/25 08:15:07;;;;;;;10.70;1.65;;;;;;;;;;4963524;28;20054;-68
2022/02/25 08:17:34;;;;;;;5.25;1.55;;;;;;;;;;4960677;28;20432;-68
2022/02/25 08:20:03;;;;;;;8.48;1.55;;;;;;;;;;4959477;28;20047;-68
2022/02/25 08:22:31;;;;;;;7.68;1.10;;;;;;;;;;4961283;28;20473;-68
2022/02/25 08:24:58;;;;;;;8.15;1.45;;;;;;;;;;4965416;28;20043;-68
2022/02/25 08:27:25;;;;;;;9.25;1.40;;;;;;;;;;4956867;28;20059;-68
2022/02/25 08:29:52;;;;;;;6.40;1.40;;;;;;;;;;4962791;28;20098;-68
2022/02/25 08:32:19;;;;;;;6.18;1.75;;;;;;;;;;4955953;28;20054;-68
2022/02/25 08:34:47;;;;;;;10.18;1.95;;;;;;;;;;4959319;28;20485;-69
2022/02/25 08:37:15;;;;;;;5.72;1.48;;;;;;;;;;4958740;28;20059;-67
2022/02/25 08:39:42;;;;;;;10.75;1.40;;;;;;;;;;4958661;28;20055;-69
2022/02/25 08:42:08;;;;;;;7.75;1.35;;;;;;;;;;4958497;28;20047;-69
2022/02/25 08:44:37;;;;;;;6.00;1.35;;;;;;;;;;4958914;28;20113;-66
2022/02/25 08:47:04;;;;;;;6.25;1.20;;;;;;;;;;4960274;28;20051;-69
2022/02/25 08:49:31;;;;;;;5.65;1.15;;;;;;;;;;4963089;28;20058;-68
2022/02/25 08:51:58;;;;;;;11.70;1.75;;;;;;;;;;4963381;28;20105;-68
2022/02/25 08:54:30;;;;;;;7.03;1.77;;;;;;;;;;4960891;28;20138;-69
2022/02/25 08:56:57;;;;;;;9.25;1.83;;;;;;;;;;4964820;28;20050;-71
2022/02/25 08:59:23;;;;;;;3.78;1.00;;;;;;;;;;4947738;28;20061;-70
2022/02/25 09:01:53;;;;;;;7.93;1.25;;;;;;;;;;4977115;28;20050;-66
2022/02/25 09:04:20;;;;;;;8.23;1.73;;;;;;;;;;4965635;28;20466;-68
2022/02/25 09:06:47;;;;;;;5.05;1.10;;;;;;;;;;4961856;28;20050;-67
2022/02/25 09:09:14;;;;;;;6.10;1.05;;;;;;;;;;4961965;28;20395;-69
2022/02/25 09:11:43;;;;;;;4.13;1.08;;;;;;;;;;4962742;28;20311;-68
2022/02/25 09:14:10;;;;;;;5.03;1.23;;;;;;;;;;4963881;28;20051;-66
2022/02/25 09:16:37;;;;;;;17.63;2.50;;;;;;;;;;4964304;28;20066;-66
2022/02/25 09:19:04;;;;;;;4.10;0.90;;;;;;;;;;4961898;28;20057;-70
2022/02/25 09:21:31;;;;;;;8.38;1.25;;;;;;;;;;4962060;28;20058;-67
2022/02/25 09:23:58;;;;;;;7.95;1.63;;;;;;;;;;4960960;28;20039;-67
2022/02/25 09:26:24;;;;;;;6.10;1.50;;;;;;;;;;4964103;28;20058;-69
2022/02/25 09:28:51;;;;;;;6.35;0.80;;;;;;;;;;4964397;28;20050;-66
2022/02/25 09:31:19;;;;;;;6.88;1.35;;;;;;;;;;4963148;28;20058;-65
2022/02/25 09:33:48;;;;;;;8.05;1.52;;;;;;;;;;4961523;28;20047;-66
2022/02/25 09:36:15;;;;;;;12.23;1.60;;;;;;;;;;4963191;28;20047;-68
2022/02/25 09:38:42;;;;;;;7.97;1.20;;;;;;;;;;4964385;28;20055;-66
2022/02/25 09:41:08;;;;;;;5.45;1.17;;;;;;;;;;4963854;28;20126;-67
2022/02/25 09:43:37;;;;;;;9.95;1.60;;;;;;;;;;4960758;28;20043;-68
2022/02/25 09:46:06;;;;;;;6.70;1.10;;;;;;;;;;4960705;28;20051;-67
2022/02/25 09:48:33;;;;;;;6.93;1.23;;;;;;;;;;4962531;28;20524;-67
2022/02/25 09:50:59;;;;;;;9.73;1.48;;;;;;;;;;4962103;28;20047;-68
2022/02/25 09:53:26;;;;;;;10.07;1.10;;;;;;;;;;4960982;28;20048;-68
2022/02/25 09:55:53;;;;;;;7.00;0.95;;;;;;;;;;4994349;23;20433;-64
2022/02/25 09:58:20;;;;;;;4.55;0.95;;;;;;;;;;4972033;28;20501;-66
2022/02/25 10:00:47;;;;;;;7.63;1.38;;;;;;;;;;4973551;28;20050;-66
2022/02/25 10:03:16;;;;;;;6.57;1.27;;;;;;;;;;4988566;28;20117;-65
2022/02/25 10:05:43;;;;;;;10.65;1.10;;;;;;;;;;4955939;28;20043;-66
2022/02/25 10:08:28;;;;;;;5.22;1.05;;;;;;;;;;4972273;28;20505;-65
2022/02/25 10:10:59;;;;;;;6.60;1.10;;;;;;;;;;4971436;28;20059;-65
2022/02/25 10:13:27;;;;;;;7.53;1.25;;;;;;;;;;4956991;28;20121;-66
2022/02/25 10:16:13;;;;;;;8.57;1.17;;;;;;;;;;4972090;28;20132;-65
2022/02/25 10:18:40;;;;;;;4.60;0.88;;;;;;;;;;4970165;28;20274;-64
2022/02/25 10:21:09;;;;;;;2.83;0.95;;;;;;;;;;4971778;28;20046;-67
2022/02/25 10:23:40;;;;;;;8.05;1.05;;;;;;;;;;4973197;28;20489;-66
2022/02/25 10:26:16;;;;;;;8.55;1.50;;;;;;;;;;4971749;28;20105;-65
2022/02/25 10:28:44;;;;;;;5.07;1.67;;;;;;;;;;4964891;28;20529;-63
2022/02/25 10:31:35;;;;;;;6.70;0.98;;;;;;;;;;4956111;28;20510;-65
2022/02/25 10:34:02;;;;;;;4.43;1.25;;;;;;;;;;4960130;28;20491;-65
2022/02/25 10:36:50;;;;;;;6.43;0.80;;;;;;;;;;4970552;28;20046;-70
2022/02/25 10:39:25;;;;;;;4.20;0.65;;;;;;;;;;4969940;28;20051;-71
2022/02/25 10:42:11;;;;;;;6.32;1.08;;;;;;;;;;4962393;28;20059;-73
2022/02/25 10:44:43;;;;;;;6.07;1.10;;;;;;;;;;4944733;28;20047;-73
2022/02/25 10:47:24;;;;;;;5.88;1.00;;;;;;;;;;4971325;28;20490;-75
2022/02/25 10:49:59;;;;;;;6.07;0.90;;;;;;;;;;4948776;28;20102;-75
2022/02/25 10:52:31;;;;;;;3.22;1.40;;;;;;;;;;4961384;28;20051;-75
2022/02/25 10:54:58;;;;;;;4.60;0.80;;;;;;;;;;4972592;28;20051;-75
2022/02/25 10:57:26;;;;;;;7.63;1.25;;;;;;;;;;4948819;28;20051;-73
2022/02/25 10:59:53;;;;;;;7.18;1.33;;;;;;;;;;4940135;28;20548;-72
2022/02/25 11:02:25;;;;;;;7.17;1.33;;;;;;;;;;4941160;28;20054;-72
2022/02/25 11:05:13;;;;;;;5.50;1.17;;;;;;;;;;4972554;28;20290;-69
2022/02/25 11:07:42;;;;;;;3.92;0.82;;;;;;;;;;4964618;28;20098;-69
2022/02/25 11:10:12;;;;;;;5.05;1.02;;;;;;;;;;4972027;28;20465;-68
2022/02/25 11:12:41;;;;;;;7.82;1.20;;;;;;;;;;4971062;28;20086;-66
2022/02/25 11:15:10;;;;;;;5.20;0.82;;;;;;;;;;4946597;28;20051;-66
2022/02/25 11:17:38;;;;;;;4.68;1.27;;;;;;;;;;4937333;28;20055;-69
2022/02/25 11:20:11;;;;;;;7.00;1.30;;;;;;;;;;4955375;28;20057;-64
2022/02/25 11:22:42;;;;;;;9.13;1.00;;;;;;;;;;4954979;28;20450;-64
2022/02/25 11:25:16;;;;;;;4.40;1.13;;;;;;;;;;4958289;28;20050;-71
2022/02/25 11:27:44;;;;;;;4.15;0.90;;;;;;;;;;4937084;28;20062;-67
2022/02/25 11:30:38;;;;;;;6.47;1.35;;;;;;;;;;4970494;28;20061;-71
2022/02/25 11:33:19;;;;;;;9.35;0.90;;;;;;;;;;4970465;28;20501;-71
2022/02/25 11:35:50;;;;;;;5.03;1.15;;;;;;;;;;4952346;28;20047;-70
2022/02/25 11:38:40;;;;;;;4.35;0.90;;;;;;;;;;4967823;28;20050;-69
2022/02/25 11:41:20;;;;;;;4.18;1.05;;;;;;;;;;4970390;28;20093;-69
2022/02/25 11:43:57;;;;;;;4.05;0.70;;;;;;;;;;4962743;28;20572;-65
2022/02/25 11:46:28;;;;;;;4.07;1.00;;;;;;;;;;4970748;28;20105;-64
2022/02/25 11:49:10;;;;;;;4.15;0.90;;;;;;;;;;4964040;28;20046;-65
2022/02/25 11:51:42;;;;;;;4.85;0.90;;;;;;;;;;4955714;28;20346;-66
2022/02/25 11:54:34;;;;;;;6.00;1.20;;;;;;;;;;4966644;28;20069;-65
2022/02/25 11:57:17;;;;;;;2.67;1.00;;;;;;;;;;4967701;28;20523;-65
2022/02/25 11:59:44;;;;;;;5.10;1.00;;;;;;;;;;4945534;28;20109;-65
2022/02/25 12:02:16;;;;;;;8.13;2.05;;;;;;;;;;4971193;28;20066;-66
2022/02/25 12:04:53;;;;;;;8.02;1.45;;;;;;;;;;4966853;28;20050;-65
2022/02/25 12:07:41;;;;;;;3.30;1.23;;;;;;;;;;4970824;28;20133;-64
2022/02/25 12:10:12;;;;;;;4.97;1.45;;;;;;;;;;4969196;28;20046;-65
2022/02/25 12:12:41;;;;;;;6.25;1.30;;;;;;;;;;4965609;28;20137;-64
2022/02/25 12:15:44;;;;;;;5.72;1.48;;;;;;;;;;4967927;28;20410;-66
2022/02/25 12:18:27;;;;;;;4.50;2.22;;;;;;;;;;4909220;28;20131;-65
2022/02/25 12:21:02;;;;;;;4.10;1.20;;;;;;;;;;4955153;28;20074;-66
2022/02/25 12:23:43;;;;;;;4.60;0.80;;;;;;;;;;4954414;28;20476;-65
2022/02/25 12:26:38;;;;;;;7.18;1.30;;;;;;;;;;4947740;28;20054;-65
2022/02/25 12:29:18;;;;;;;7.53;1.25;;;;;;;;;;4971108;28;20058;-66
2022/02/25 12:31:48;;;;;;;3.40;1.23;;;;;;;;;;4949421;28;20082;-66
2022/02/25 12:34:21;;;;;;;4.78;1.10;;;;;;;;;;4970819;28;20433;-65
2022/02/25 12:36:51;;;;;;;3.70;0.95;;;;;;;;;;4973304;28;20047;-66
2022/02/25 12:39:31;;;;;;;4.63;0.93;;;;;;;;;;4968447;28;20257;-67
2022/02/25 12:42:01;;;;;;;3.17;0.85;;;;;;;;;;4959462;28;20671;-66
2022/02/25 12:44:34;;;;;;;3.58;1.10;;;;;;;;;;4962384;28;20061;-65
2022/02/25 12:47:03;;;;;;;;;;;;;;;;;;4974974;28;20105;-63
2022/02/25 12:49:31;;;;;;;6.35;1.08;;;;;;;;;;4963826;28;19922;-65
2022/02/25 12:52:02;;;;;;;4.93;0.90;;;;;;;;;;4974880;28;20409;-64
2022/02/25 12:54:30;;;;;;;3.95;1.00;;;;;;;;;;4947699;28;20061;-65
2022/02/25 12:57:00;;;;;;;5.93;1.20;;;;;;;;;;4973946;28;20055;-64
2022/02/25 12:59:39;;;;;;;3.63;0.90;;;;;;;;;;4963834;28;20050;-64
2022/02/25 13:02:08;;;;;;;3.80;0.90;;;;;;;;;;4974501;28;20050;-66
2022/02/25 13:04:44;;;;;;;4.22;1.30;;;;;;;;;;4973032;28;20084;-64
2022/02/25 13:07:12;;;;;;;4.65;1.15;;;;;;;;;;4973055;28;20058;-64
2022/02/25 13:09:39;;;;;;;5.78;1.70;;;;;;;;;;4975804;28;20073;-65
2022/02/25 13:12:15;;;;;;;3.78;0.90;;;;;;;;;;4950985;28;20057;-66
2022/02/25 13:14:48;;;;;;;5.03;1.00;;;;;;;;;;4971792;28;20122;-65
2022/02/25 13:17:26;;;;;;;4.80;1.05;;;;;;;;;;4977604;28;20046;-65
2022/02/25 13:19:55;;;;;;;7.95;1.63;;;;;;;;;;4973500;28;20082;-65
2022/02/25 13:22:26;;;;;;;4.57;1.10;;;;;;;;;;4963875;28;20383;-65
2022/02/25 13:25:01;;;;;;;4.82;1.10;;;;;;;;;;4974497;28;20080;-65
2022/02/25 13:27:41;;;;;;;7.22;1.23;;;;;;;;;;4974870;28;20046;-64
2022/02/25 13:30:27;;;;;;;9.45;1.15;;;;;;;;;;4972405;28;20101;-65
2022/02/25 13:33:05;;;;;;;4.65;1.00;;;;;;;;;;4968907;28;20069;-65
2022/02/25 13:35:44;;;;;;;3.35;0.77;;;;;;;;;;4966258;28;20055;-65
2022/02/25 13:38:25;;;;;;;5.45;1.27;;;;;;;;;;4971727;28;20050;-65
2022/02/25 13:41:01;;;;;;;4.82;1.08;;;;;;;;;;4974171;28;20498;-66
2022/02/25 13:43:45;;;;;;;5.63;1.23;;;;;;;;;;4973650;28;20478;-68
2022/02/25 13:46:19;;;;;;;4.60;1.40;;;;;;;;;;4972969;28;20047;-67
2022/02/25 13:54:28;;;;;;;5.38;1.20;;;;;;;;;;4972565;28;20134;-67
2022/02/25 13:56:56;;;;;;;9.25;2.03;;;;;;;;;;4973586;28;20109;-67
2022/02/25 13:59:26;;;;;;;6.35;1.30;;;;;;;;;;4972881;28;20051;-67
2022/02/25 14:02:11;;;;;;;4.57;1.20;;;;;;;;;;4971191;28;20578;-68
2022/02/25 14:04:38;;;;;;;6.50;1.67;;;;;;;;;;4973697;28;20051;-66
2022/02/25 14:07:07;;;;;;;7.93;1.27;;;;;;;;;;4972564;28;20047;-66
2022/02/25 14:09:37;;;;;;;6.18;1.33;;;;;;;;;;4973362;28;20063;-67
2022/02/25 14:12:10;;;;;;;5.60;1.13;;;;;;;;;;4971602;28;20517;-69
2022/02/25 14:14:39;;;;;;;3.03;1.07;;;;;;;;;;4957009;28;20496;-67
2022/02/25 14:17:14;;;;;;;4.45;0.95;;;;;;;;;;4972460;28;20130;-66
2022/02/25 14:19:41;;;;;;;3.42;0.90;;;;;;;;;;4973125;28;20391;-66
2022/02/25 14:22:15;;;;;;;4.43;1.10;;;;;;;;;;4972105;28;20130;-65
2022/02/25 14:24:46;;;;;;;5.00;1.33;;;;;;;;;;4956234;28;20061;-65
2022/02/25 14:27:16;;;;;;;5.82;1.70;;;;;;;;;;4956244;28;20592;-73
2022/02/25 14:29:56;;;;;;;6.07;1.55;;;;;;;;;;4956444;28;20077;-71
2022/02/25 14:32:50;;;;;;;5.60;1.45;;;;;;;;;;4961518;28;20501;-65
2022/02/25 14:35:25;;;;;;;5.43;1.33;;;;;;;;;;4959904;28;20525;-70
2022/02/25 14:37:54;;;;;;;6.07;2.10;;;;;;;;;;4970168;28;20101;-68
2022/02/25 14:40:25;;;;;;;5.53;1.73;;;;;;;;;;4954233;28;20104;-72
2022/02/25 14:42:53;;;;;;;4.72;2.03;;;;;;;;;;4946547;28;20050;-70
2022/02/25 14:45:20;;;;;;;10.10;2.15;;;;;;;;;;4952308;28;20142;-66
2022/02/25 14:47:49;;;;;;;7.43;1.70;;;;;;;;;;4970186;28;20050;-70
2022/02/25 14:50:17;;;;;;;7.88;1.95;;;;;;;;;;4943976;28;20055;-67
2022/02/25 14:52:44;;;;;;;8.25;1.80;;;;;;;;;;4968930;28;20058;-69
2022/02/25 14:55:12;;;;;;;14.23;2.67;;;;;;;;;;4968878;28;20043;-66
2022/02/25 14:57:40;;;;;;;11.43;2.45;;;;;;;;;;4969914;28;20061;-68
2022/02/25 15:00:11;;;;;;;10.02;1.42;;;;;;;;;;4959153;28;20794;-64
2022/02/25 15:02:39;;;;;;;7.75;1.20;;;;;;;;;;4941227;28;20422;-76
2022/02/25 15:05:06;;;;;;;5.10;1.27;;;;;;;;;;4944005;28;20066;-69
2022/02/25 15:07:37;;;;;;;6.93;1.13;;;;;;;;;;4940316;28;20055;-76
2022/02/25 15:10:05;;;;;;;6.25;1.67;;;;;;;;;;4968459;28;20585;-68